createdAt,value
2018-12-12T00:02:56.764Z,6.50
2018-12-12T00:07:03.357Z,5.77
2018-12-12T00:11:07.686Z,6.20
2018-12-12T00:15:11.728Z,5.90
2018-12-12T00:19:14.945Z,5.93
2018-12-12T00:23:17.531Z,5.47
2018-12-12T00:27:21.958Z,5.67
2018-12-12T00:31:25.931Z,4.93
2018-12-12T00:35:29.732Z,5.30
2018-12-12T00:39:34.070Z,5.47
2018-12-12T00:43:37.866Z,5.63
2018-12-12T00:47:42.022Z,5.33
2018-12-12T00:51:46.221Z,6.03
2018-12-12T00:55:50.418Z,5.87
2018-12-12T00:59:54.358Z,6.00
2018-12-12T01:03:58.324Z,5.97
2018-12-12T01:08:02.277Z,6.20
2018-12-12T01:12:11.147Z,6.07
2018-12-12T01:16:14.903Z,5.40
2018-12-12T01:20:20.032Z,6.20
2018-12-12T01:24:25.096Z,6.00
2018-12-12T01:28:27.470Z,6.17
2018-12-12T01:32:31.833Z,6.03
2018-12-12T01:36:35.885Z,5.83
2018-12-12T01:40:40.138Z,5.10
2018-12-12T01:44:44.254Z,5.40
2018-12-12T01:48:47.941Z,6.33
2018-12-12T01:52:51.277Z,5.43
2018-12-12T01:56:58.420Z,6.27
2018-12-12T02:01:03.030Z,6.60
2018-12-12T02:05:04.692Z,6.93
2018-12-12T02:09:06.309Z,6.90
2018-12-12T02:13:14.021Z,6.90
2018-12-12T02:17:18.682Z,6.30
2018-12-12T02:21:26.969Z,7.20
2018-12-12T02:25:35.766Z,6.57
2018-12-12T02:29:39.969Z,7.30
2018-12-12T02:33:44.096Z,6.57
2018-12-12T02:37:48.565Z,6.63
2018-12-12T02:41:50.815Z,7.10
2018-12-12T02:45:55.379Z,7.40
2018-12-12T02:50:02.974Z,7.60
2018-12-12T02:54:04.433Z,7.20
2018-12-12T02:58:11.405Z,7.47
2018-12-12T03:02:13.751Z,7.53
2018-12-12T03:06:21.561Z,7.63
2018-12-12T03:10:25.674Z,8.00
2018-12-12T03:14:27.031Z,8.47
2018-12-12T03:18:29.979Z,7.77
2018-12-12T03:22:32.322Z,8.27
2018-12-12T03:26:37.348Z,8.13
2018-12-12T03:30:41.429Z,8.67
2018-12-12T03:34:45.396Z,8.37
2018-12-12T03:38:47.605Z,8.27
2018-12-12T03:42:52.327Z,8.80
2018-12-12T03:46:56.208Z,9.00
2018-12-12T03:50:58.368Z,8.93
2018-12-12T03:55:05.441Z,9.13
2018-12-12T03:59:08.125Z,9.90
2018-12-12T04:03:12.041Z,9.70
2018-12-12T04:07:19.103Z,9.17
2018-12-12T04:11:23.199Z,9.73
2018-12-12T04:15:27.278Z,9.60
2018-12-12T04:19:31.092Z,9.40
2018-12-12T04:23:33.317Z,9.70
2018-12-12T04:27:37.351Z,10.03
2018-12-12T04:31:41.734Z,10.60
2018-12-12T04:35:45.954Z,9.97
2018-12-12T04:39:50.015Z,9.40
2018-12-12T04:43:53.850Z,9.50
2018-12-12T04:47:58.030Z,9.40
2018-12-12T04:52:01.768Z,10.33
2018-12-12T04:56:05.605Z,10.83
2018-12-12T05:00:09.439Z,11.27
2018-12-12T05:04:12.474Z,10.30
2018-12-12T05:08:14.883Z,11.77
2018-12-12T05:12:23.022Z,11.67
2018-12-12T05:16:25.150Z,12.00
2018-12-12T05:20:31.203Z,10.53
2018-12-12T05:24:36.269Z,10.27
2018-12-12T05:28:40.508Z,10.33
2018-12-12T05:32:47.627Z,10.10
2018-12-12T05:36:55.837Z,10.43
2018-12-12T05:41:01.307Z,10.27
2018-12-12T05:45:05.701Z,10.77
2018-12-12T05:49:08.665Z,10.63
2018-12-12T05:53:14.394Z,11.07
2018-12-12T05:57:17.136Z,9.47
2018-12-12T06:01:21.437Z,9.20
2018-12-12T06:05:27.167Z,8.67
2018-12-12T06:09:35.303Z,8.80
2018-12-12T06:13:39.758Z,10.03
2018-12-12T06:17:45.612Z,9.60
2018-12-12T06:21:48.429Z,9.83
2018-12-12T06:25:52.985Z,9.07
2018-12-12T06:29:55.765Z,9.60
2018-12-12T06:38:26.005Z,10.00
2018-12-12T06:42:32.059Z,9.93
2018-12-12T06:46:36.479Z,9.90
2018-12-12T06:50:38.873Z,10.03
2018-12-12T06:54:43.014Z,9.33
2018-12-12T06:58:45.171Z,9.87
2018-12-12T07:02:49.362Z,8.23
2018-12-12T07:06:58.043Z,8.33
2018-12-12T07:11:05.937Z,8.40
2018-12-12T07:15:10.657Z,8.77
2018-12-12T07:19:19.649Z,9.17
2018-12-12T07:23:24.652Z,8.53
2018-12-12T07:27:29.505Z,9.77
2018-12-12T07:31:35.406Z,8.87
2018-12-12T07:35:42.338Z,9.80
2018-12-12T07:39:46.573Z,9.47
2018-12-12T07:43:50.762Z,10.60
2018-12-12T07:48:01.269Z,10.03
2018-12-12T07:52:01.489Z,10.53
2018-12-12T07:56:05.457Z,9.57
2018-12-12T08:00:11.308Z,9.17
2018-12-12T08:04:15.644Z,9.50
2018-12-12T08:08:19.390Z,9.07
2018-12-12T08:12:23.018Z,9.00
2018-12-12T08:16:25.495Z,8.77
2018-12-12T08:20:28.944Z,9.30
2018-12-12T08:24:33.035Z,9.13
2018-12-12T08:28:37.450Z,10.27
2018-12-12T08:32:41.815Z,9.30
2018-12-12T08:36:43.884Z,8.77
2018-12-12T08:40:48.487Z,9.13
2018-12-12T08:44:52.790Z,9.33
2018-12-12T08:48:55.276Z,10.43
2018-12-12T08:52:59.534Z,9.17
2018-12-12T08:57:04.214Z,10.07
2018-12-12T09:01:06.692Z,10.17
2018-12-12T09:05:10.815Z,9.53
2018-12-12T09:09:16.264Z,9.20
2018-12-12T09:13:20.219Z,9.83
2018-12-12T09:17:26.029Z,9.60
2018-12-12T09:21:35.840Z,9.73
2018-12-12T09:25:40.495Z,9.73
2018-12-12T09:29:45.486Z,8.87
2018-12-12T09:33:47.681Z,9.13
2018-12-12T09:37:53.887Z,8.77
2018-12-12T09:41:58.361Z,8.93
2018-12-12T09:46:05.494Z,9.30
2018-12-12T09:50:09.215Z,9.13
2018-12-12T09:54:16.677Z,11.90
2018-12-12T09:58:21.352Z,9.30
2018-12-12T10:02:28.415Z,9.73
2018-12-12T10:06:32.655Z,9.57
2018-12-12T10:10:38.150Z,9.17
2018-12-12T10:14:42.064Z,9.43
2018-12-12T10:18:44.471Z,9.20
2018-12-12T10:22:48.420Z,9.23
2018-12-12T10:26:52.215Z,8.47
2018-12-12T10:30:56.259Z,9.73
2018-12-12T10:35:04.186Z,9.50
2018-12-12T10:39:08.721Z,8.80
2018-12-12T10:47:16.286Z,7.77
2018-12-12T10:51:30.715Z,8.33
2018-12-12T10:55:36.345Z,8.40
2018-12-12T10:59:41.149Z,8.23
2018-12-12T11:03:52.320Z,8.20
2018-12-12T11:07:56.478Z,8.73
2018-12-12T11:12:06.742Z,8.17
2018-12-12T11:16:16.717Z,7.87
2018-12-12T11:20:24.714Z,8.13
2018-12-12T11:24:32.239Z,8.33
2018-12-12T11:28:35.774Z,7.90
2018-12-12T11:32:44.071Z,7.40
2018-12-12T11:36:48.472Z,7.33
2018-12-12T11:40:54.278Z,8.83
2018-12-12T11:44:58.171Z,7.63
2018-12-12T11:49:00.233Z,6.83
2018-12-12T11:53:02.371Z,7.73
2018-12-12T11:57:08.263Z,7.67
2018-12-12T12:01:16.125Z,6.67
2018-12-12T12:05:23.978Z,7.47
2018-12-12T12:09:34.267Z,7.57
2018-12-12T12:13:38.236Z,6.03
2018-12-12T12:17:42.552Z,6.73
2018-12-12T12:21:54.822Z,8.03
2018-12-12T12:25:57.642Z,8.20
2018-12-12T12:30:01.285Z,9.20
2018-12-12T12:34:06.583Z,8.40
2018-12-12T12:38:13.687Z,9.40
2018-12-12T12:42:22.404Z,9.83
2018-12-12T12:46:30.714Z,9.90
2018-12-12T12:54:35.584Z,10.63
2018-12-12T12:58:40.550Z,10.17
2018-12-12T13:02:44.610Z,10.97
2018-12-12T13:06:50.950Z,11.50
2018-12-12T13:10:54.795Z,10.73
2018-12-12T13:14:59.393Z,11.17
2018-12-12T13:19:05.864Z,12.10
2018-12-12T13:23:11.064Z,12.17
2018-12-12T13:27:15.088Z,12.03
2018-12-12T13:31:18.955Z,12.43
2018-12-12T13:35:21.995Z,12.67
2018-12-12T13:39:24.280Z,11.63
2018-12-12T13:43:28.432Z,12.13
2018-12-12T13:47:33.027Z,12.93
2018-12-12T13:51:37.093Z,11.50
2018-12-12T13:59:39.773Z,13.50
2018-12-12T14:03:43.915Z,13.00
2018-12-12T14:07:46.356Z,12.87
2018-12-12T14:11:50.538Z,12.80
2018-12-12T14:15:55.134Z,11.83
2018-12-12T14:19:58.750Z,11.93
2018-12-12T14:24:03.949Z,12.70
2018-12-12T14:28:08.116Z,12.37
2018-12-12T14:32:14.923Z,13.00
2018-12-12T14:36:22.435Z,12.57
2018-12-12T14:40:26.631Z,13.17
2018-12-12T14:44:30.691Z,12.73
2018-12-12T14:48:34.819Z,13.67
2018-12-12T14:52:39.730Z,13.80
2018-12-12T14:56:44.728Z,12.33
2018-12-12T15:00:48.891Z,12.40
2018-12-12T15:04:52.903Z,12.90
2018-12-12T15:08:55.604Z,11.83
2018-12-12T15:13:00.032Z,11.43
2018-12-12T15:17:02.008Z,12.37
2018-12-12T15:21:06.110Z,12.43
2018-12-12T15:25:14.346Z,12.77
2018-12-12T15:29:18.939Z,13.40
2018-12-12T15:33:23.245Z,12.20
2018-12-12T15:37:27.083Z,13.20
2018-12-12T15:41:35.424Z,12.03
2018-12-12T15:45:39.715Z,11.90
2018-12-12T15:49:44.027Z,11.97
2018-12-12T15:53:47.818Z,11.10
2018-12-12T15:57:53.089Z,10.40
2018-12-12T16:01:57.627Z,10.53
2018-12-12T16:06:06.135Z,10.50
2018-12-12T16:10:13.608Z,9.90
2018-12-12T16:14:18.143Z,9.93
2018-12-12T16:18:22.728Z,10.33
2018-12-12T16:22:27.422Z,10.13
2018-12-12T16:26:34.334Z,11.33
2018-12-12T16:30:38.565Z,9.93
2018-12-12T16:34:42.864Z,10.10
2018-12-12T16:38:45.174Z,10.50
2018-12-12T16:42:49.691Z,10.53
2018-12-12T16:46:54.843Z,10.63
2018-12-12T16:51:03.718Z,10.20
2018-12-12T16:55:11.014Z,10.00
2018-12-12T16:59:13.479Z,11.27
2018-12-12T17:03:18.083Z,9.80
2018-12-12T17:07:22.550Z,9.77
2018-12-12T17:11:26.622Z,10.00
2018-12-12T17:15:29.979Z,10.37
2018-12-12T17:19:34.674Z,10.40
2018-12-12T17:23:39.862Z,10.27
2018-12-12T17:27:45.322Z,9.87
2018-12-12T17:31:50.695Z,9.33
2018-12-12T17:35:54.993Z,9.03
2018-12-12T17:39:58.997Z,9.03
2018-12-12T17:44:03.531Z,9.87
2018-12-12T17:48:14.382Z,10.10
2018-12-12T17:52:23.414Z,9.33
2018-12-12T17:56:28.647Z,10.20
2018-12-12T18:00:33.965Z,9.50
2018-12-12T18:04:40.396Z,8.70
2018-12-12T18:08:43.020Z,9.17
2018-12-12T18:12:47.091Z,9.83
2018-12-12T18:16:50.868Z,9.60
2018-12-12T18:20:55.155Z,9.73
2018-12-12T18:24:59.484Z,9.97
2018-12-12T18:29:01.735Z,11.10
2018-12-12T18:33:05.966Z,9.57
2018-12-12T18:37:13.022Z,9.57
2018-12-12T18:41:19.713Z,10.00
2018-12-12T18:45:24.273Z,9.43
2018-12-12T18:49:26.761Z,10.47
2018-12-12T18:53:30.810Z,10.50
2018-12-12T18:57:34.205Z,10.63
2018-12-12T19:01:38.152Z,11.63
2018-12-12T19:05:42.723Z,10.40
2018-12-12T19:09:52.254Z,10.93
2018-12-12T19:13:56.353Z,11.13
2018-12-12T19:18:02.186Z,10.63
2018-12-12T19:22:10.618Z,11.33
2018-12-12T19:26:14.722Z,11.27
2018-12-12T19:30:18.414Z,10.00
2018-12-12T19:34:22.309Z,10.40
2018-12-12T19:38:26.351Z,9.97
2018-12-12T19:42:30.469Z,9.70
2018-12-12T19:46:34.244Z,10.13
2018-12-12T19:50:36.506Z,9.90
2018-12-12T19:54:40.588Z,9.30
2018-12-12T19:58:43.918Z,9.40
2018-12-12T20:02:47.932Z,10.13
2018-12-12T20:06:52.002Z,8.93
2018-12-12T20:10:56.157Z,9.03
2018-12-12T20:15:00.095Z,9.30
2018-12-12T20:19:02.270Z,8.83
2018-12-12T20:23:09.977Z,8.77
2018-12-12T20:27:13.579Z,8.63
2018-12-12T20:31:17.377Z,7.90
2018-12-12T20:35:21.796Z,7.90
2018-12-12T20:39:26.134Z,9.33
2018-12-12T20:43:34.094Z,8.87
2018-12-12T20:47:38.402Z,9.10
2018-12-12T20:51:45.565Z,9.23
2018-12-12T20:55:49.699Z,9.53
2018-12-12T20:59:51.903Z,10.00
2018-12-12T21:03:56.088Z,10.07
2018-12-12T21:07:59.977Z,9.67
2018-12-12T21:12:04.240Z,9.67
2018-12-12T21:16:07.697Z,10.00
2018-12-12T21:20:11.881Z,10.70
2018-12-12T21:24:16.002Z,10.00
2018-12-12T21:28:20.213Z,9.93
2018-12-12T21:32:24.641Z,10.87
2018-12-12T21:36:26.859Z,9.77
2018-12-12T21:40:30.763Z,9.77
2018-12-12T21:44:34.805Z,9.37
2018-12-12T21:48:39.162Z,9.17
2018-12-12T21:52:43.447Z,9.63
2018-12-12T21:56:47.557Z,9.40
2018-12-12T22:00:52.614Z,9.50
2018-12-12T22:04:56.461Z,10.77
2018-12-12T22:08:58.681Z,9.87
2018-12-12T22:13:06.372Z,8.80
2018-12-12T22:17:10.498Z,9.10
2018-12-12T22:21:15.793Z,8.73
2018-12-12T22:25:19.860Z,9.80
2018-12-12T22:29:26.162Z,9.13
2018-12-12T22:33:30.557Z,9.43
2018-12-12T22:37:32.706Z,9.50
2018-12-12T22:41:36.916Z,9.20
2018-12-12T22:45:41.289Z,10.43
2018-12-12T22:49:46.428Z,9.60
2018-12-12T22:53:50.046Z,9.30
2018-12-12T22:57:54.052Z,9.60
2018-12-12T23:02:01.698Z,9.83
2018-12-12T23:06:06.186Z,9.13
2018-12-12T23:10:10.159Z,8.93
2018-12-12T23:14:14.133Z,9.30
2018-12-12T23:18:21.590Z,8.80
2018-12-12T23:22:25.470Z,9.37
2018-12-12T23:26:29.465Z,10.43
2018-12-12T23:30:33.789Z,9.63
2018-12-12T23:34:37.593Z,9.67
2018-12-12T23:38:41.894Z,9.70
2018-12-12T23:42:45.638Z,10.20
2018-12-12T23:46:50.057Z,9.87
2018-12-12T23:50:52.207Z,9.57
2018-12-12T23:54:55.977Z,9.93
2018-12-12T23:58:57.985Z,11.10
